Weather reports worldwide

Advertisment
Torino/Bric Della Croce, Italy (16061): temperature & dewpoint: 23.05.2020 15:00:00 - 29.05.2020 15:00:00 (CEST)Torino/Bric Della Croce, Italy (16061): wind speed: 23.05.2020 15:00:00 - 29.05.2020 15:00:00 (CEST)Torino/Bric Della Croce, Italy (16061): wind direction: 23.05.2020 15:00:00 - 29.05.2020 15:00:00 (CEST)Torino/Bric Della Croce, Italy (16061): visibility: 23.05.2020 15:00:00 - 29.05.2020 15:00:00 (CEST)Torino/Bric Della Croce, Italy (16061): sunshine duration: 23.05.2020 15:00:00 - 29.05.2020 15:00:00 (CEST)
Date & Time tt [°C] td [°C] ff [km/h] ff [kn] dd vv [km] sd [min]
29.05.2020 15:00:00 14,6 10,0 9 5 N 45 0
29.05.2020 14:00:00 14,0 10,6 16 9 N 30 0
29.05.2020 13:00:00 13,4 10,9 9 5 NNE 30 60
29.05.2020 12:00:00 12,6 10,3 21 11 NNE 30 0
29.05.2020 11:00:00 11,4 11,4 26 14 N 30 0
29.05.2020 10:00:00 11,0 11,0 26 14 N 25 0
29.05.2020 09:00:00 11,2 11,2 34 18 N 12 0
29.05.2020 08:00:00 11,4 11,4 26 14 N 12 0
29.05.2020 07:00:00 12,0 12,0 34 18 N 12 -
29.05.2020 06:00:00 13,2 13,2 15 8 NE 30 -
29.05.2020 05:00:00 15,0 15,0 13 7 E 30 -
29.05.2020 04:00:00 17,0 16,2 5 3 NW 30 -
29.05.2020 03:00:00 17,4 15,6 0 0 N 30 -
29.05.2020 02:00:00 17,4 15,6 9 5 SSW 30 -
29.05.2020 01:00:00 17,8 14,5 9 5 S 30 -
29.05.2020 00:00:00 18,0 15,2 11 6 S 30 -
28.05.2020 23:00:00 18,4 15,1 8 4 SSE 30 -
28.05.2020 22:00:00 19,2 14,9 8 4 SE 30 -
28.05.2020 21:00:00 17,8 14,9 9 5 SSE 25 6
28.05.2020 20:00:00 18,8 15,3 9 5 SE 25 60
28.05.2020 19:00:00 19,6 14,0 11 6 S 25 60
28.05.2020 18:00:00 20,0 14,4 9 5 ESE 25 60
28.05.2020 17:00:00 20,0 14,6 8 4 E 22 60
28.05.2020 16:00:00 20,0 14,6 9 5 ESE 22 60
28.05.2020 15:00:00 20,6 15,6 5 3 E 20 60
28.05.2020 14:00:00 20,2 15,2 9 5 SSE 20 60
28.05.2020 13:00:00 19,6 15,5 9 5 SSE 20 60
28.05.2020 12:00:00 19,0 15,3 0 0 N 20 60
28.05.2020 11:00:00 18,0 15,2 0 0 N 18 60
28.05.2020 10:00:00 17,4 15,7 0 0 N 18 60
28.05.2020 09:00:00 16,0 13,3 0 0 N 18 60
28.05.2020 08:00:00 16,2 12,4 0 0 N 50 54
28.05.2020 07:00:00 16,0 12,0 0 0 N 50 -
28.05.2020 06:00:00 16,0 12,0 0 0 N 50 -
28.05.2020 05:00:00 16,2 11,4 4 2 SSW 50 -
28.05.2020 04:00:00 15,8 11,0 5 3 S 50 -
28.05.2020 03:00:00 16,4 11,1 5 3 S 50 -
28.05.2020 02:00:00 16,4 10,7 8 4 SSE 50 -
28.05.2020 01:00:00 17,0 11,5 8 4 SSE 50 -
28.05.2020 00:00:00 17,2 11,5 5 3 SE 50 -
27.05.2020 23:00:00 17,4 11,4 5 3 SE 50 -
27.05.2020 22:00:00 18,4 11,2 5 3 SSE 50 -
27.05.2020 21:00:00 19,8 11,3 5 3 WSW 40 0
27.05.2020 20:00:00 22,0 10,5 5 3 SSE 40 48
27.05.2020 19:00:00 22,6 11,0 0 0 N 40 18
27.05.2020 18:00:00 22,4 11,5 0 0 N 40 60
27.05.2020 17:00:00 21,4 13,1 5 3 ESE 40 60
27.05.2020 16:00:00 19,6 11,9 4 2 SW 40 60
27.05.2020 15:00:00 19,0 12,3 0 0 N 40 60
27.05.2020 14:00:00 17,6 11,6 4 2 N 40 60
27.05.2020 13:00:00 16,8 11,3 5 3 N 40 60
27.05.2020 12:00:00 16,2 11,6 9 5 N 40 60
27.05.2020 11:00:00 15,4 11,6 9 5 N 40 60
27.05.2020 10:00:00 14,2 10,4 13 7 N 40 30
27.05.2020 09:00:00 13,4 10,4 15 8 N 40 0
27.05.2020 08:00:00 13,4 10,0 21 11 N 50 0
27.05.2020 07:00:00 13,6 10,2 16 9 NNE 50 -
27.05.2020 06:00:00 14,0 10,8 18 10 NNW 50 -
27.05.2020 05:00:00 14,0 10,8 22 12 N 50 -
27.05.2020 04:00:00 14,0 11,2 15 8 N 50 -
27.05.2020 03:00:00 15,0 14,0 16 9 N 40 -
27.05.2020 02:00:00 16,0 9,7 9 5 ENE 50 -
27.05.2020 01:00:00 16,8 10,2 9 5 ENE 50 -
27.05.2020 00:00:00 17,0 9,4 21 11 E 40 -
26.05.2020 23:00:00 17,8 11,8 5 3 ENE 50 -
26.05.2020 22:00:00 18,0 11,5 8 4 ENE 50 -
26.05.2020 21:00:00 19,8 11,8 8 4 ESE 50 36
26.05.2020 20:00:00 22,2 12,7 9 5 SE 40 60
26.05.2020 19:00:00 22,0 12,3 4 2 SE 50 60
26.05.2020 18:00:00 22,0 12,8 8 4 SE 40 60
26.05.2020 17:00:00 22,0 12,8 8 4 SSE 40 42
26.05.2020 16:00:00 22,0 12,8 0 0 N 40 60
26.05.2020 15:00:00 20,6 12,1 0 0 N 30 60
26.05.2020 14:00:00 19,2 11,2 0 0 N 40 60
26.05.2020 13:00:00 18,2 9,8 8 4 N 30 60
26.05.2020 12:00:00 17,6 9,0 9 5 N 30 60
26.05.2020 11:00:00 16,4 13,0 9 5 NNE 30 60
26.05.2020 10:00:00 15,0 13,2 11 6 NNE 40 60
26.05.2020 09:00:00 15,0 13,9 13 7 NE 30 24
26.05.2020 08:00:00 14,8 10,2 22 12 N 50 6
26.05.2020 07:00:00 15,8 6,0 26 14 NNE 50 -
26.05.2020 06:00:00 16,0 8,0 18 10 NE 50 -
26.05.2020 05:00:00 16,8 10,4 9 5 ENE 50 -
26.05.2020 04:00:00 17,8 13,3 9 5 ENE 50 -
26.05.2020 03:00:00 18,2 13,3 5 3 NE 50 -
26.05.2020 02:00:00 18,8 13,4 0 0 N 50 -
26.05.2020 01:00:00 18,0 13,3 11 6 WNW 50 -
26.05.2020 00:00:00 18,2 11,7 18 10 W 50 -
25.05.2020 23:00:00 18,8 11,1 13 7 WSW 50 -
25.05.2020 22:00:00 19,4 10,7 11 6 SSW 50 -
25.05.2020 21:00:00 21,6 9,5 11 6 SSW 50 30
25.05.2020 20:00:00 23,6 11,7 8 4 S 50 60
25.05.2020 19:00:00 23,8 12,5 11 6 S 50 60
25.05.2020 18:00:00 24,0 13,2 11 6 S 50 60
25.05.2020 17:00:00 23,2 14,5 11 6 ESE 50 60
25.05.2020 16:00:00 21,6 14,0 9 5 SE 50 60
25.05.2020 15:00:00 20,2 13,7 5 3 SE 50 60
25.05.2020 14:00:00 19,2 13,4 5 3 S 50 60
25.05.2020 13:00:00 18,0 12,9 8 4 SSE 50 60
25.05.2020 12:00:00 17,0 12,3 5 3 NNW 50 60
25.05.2020 11:00:00 16,4 12,5 8 4 N 50 60
25.05.2020 10:00:00 15,0 11,6 9 5 N 50 60
25.05.2020 09:00:00 14,2 11,2 22 12 N 50 60
25.05.2020 08:00:00 13,6 11,1 28 15 N 50 48
25.05.2020 07:00:00 13,6 11,3 24 13 N 50 -
25.05.2020 06:00:00 14,0 10,2 21 11 N 50 -
25.05.2020 05:00:00 15,0 7,3 18 10 NNE 50 -
25.05.2020 04:00:00 16,0 7,0 11 6 ENE 50 -
25.05.2020 03:00:00 16,4 8,9 13 7 NNE 50 -
25.05.2020 02:00:00 16,8 7,4 11 6 N 50 -
25.05.2020 01:00:00 17,2 9,9 0 0 N 50 -
25.05.2020 00:00:00 17,6 10,2 0 0 N 50 -
24.05.2020 23:00:00 18,4 10,0 5 3 WNW 50 -
24.05.2020 22:00:00 18,4 9,7 0 0 N 50 -
24.05.2020 21:00:00 18,8 9,3 13 7 SE 50 -
24.05.2020 20:00:00 20,0 7,4 13 7 SE 50 18
24.05.2020 19:00:00 22,4 13,5 11 6 SSE 50 48
24.05.2020 18:00:00 23,2 6,5 8 4 SE 50 60
24.05.2020 17:00:00 22,8 6,5 8 4 SE 50 60
24.05.2020 16:00:00 21,4 4,9 8 4 SE 50 60
24.05.2020 15:00:00 19,6 3,3 5 3 ESE 30 60
24.05.2020 14:00:00 19,2 3,4 9 5 ENE 40 60
24.05.2020 13:00:00 17,8 3,3 9 5 ENE 45 60
24.05.2020 12:00:00 17,2 3,5 9 5 E 45 60
24.05.2020 11:00:00 17,0 5,3 5 3 E 45 60
24.05.2020 10:00:00 16,0 9,4 4 2 ENE 50 60
24.05.2020 09:00:00 16,0 9,4 8 4 ENE 50 60
24.05.2020 08:00:00 16,0 14,4 13 7 ESE 50 60
24.05.2020 07:00:00 15,6 5,2 8 4 E 50 -
24.05.2020 06:00:00 15,6 4,6 11 6 WNW 50 -
24.05.2020 05:00:00 15,8 8,1 21 11 NW 50 -
24.05.2020 04:00:00 16,2 9,4 8 4 E 30 -
24.05.2020 03:00:00 16,0 11,6 15 8 NNE 30 -
24.05.2020 02:00:00 15,8 14,2 26 14 N 25 -
24.05.2020 01:00:00 16,4 14,8 21 11 N 25 -
24.05.2020 00:00:00 16,8 13,3 15 8 WNW 25 -
23.05.2020 23:00:00 17,4 17,4 15 8 S 20 -
23.05.2020 22:00:00 18,0 6,5 18 10 WNW 40 -
23.05.2020 21:00:00 18,2 10,3 34 18 W 40 0
23.05.2020 20:00:00 18,4 15,7 24 13 W 20 0
23.05.2020 19:00:00 18,8 18,8 11 6 SSE 20 0
23.05.2020 18:00:00 21,4 19,2 15 8 ESE 20 24
23.05.2020 17:00:00 21,0 17,4 15 8 ESE 18 0
23.05.2020 16:00:00 21,8 18,0 11 6 ESE 18 0
23.05.2020 15:00:00 21,8 18,2 13 7 SSE 15 12

tt = temperature
td = dewpoint
ff = wind speed
dd = wind direction
vv = visibility
sd = sunshine duration

Next stations